sensor_id;sensor_type;location;lat;lon;timestamp;temperature;humidity
29687;DHT22;16599;47.078;15.536;2023-11-22T00:02:17;1.30;99.90
29687;DHT22;16599;47.078;15.536;2023-11-22T00:04:45;1.40;99.90
29687;DHT22;16599;47.078;15.536;2023-11-22T00:07:12;1.60;99.90
29687;DHT22;16599;47.078;15.536;2023-11-22T00:09:39;1.70;99.90
29687;DHT22;16599;47.078;15.536;2023-11-22T00:12:06;1.30;99.90
29687;DHT22;16599;47.078;15.536;2023-11-22T00:14:33;1.40;99.90
29687;DHT22;16599;47.078;15.536;2023-11-22T00:17:01;1.10;99.90
29687;DHT22;16599;47.078;15.536;2023-11-22T00:19:29;1.20;99.90
29687;DHT22;16599;47.078;15.536;2023-11-22T00:21:57;1.50;99.90
29687;DHT22;16599;47.078;15.536;2023-11-22T00:24:23;1.00;99.90
29687;DHT22;16599;47.078;15.536;2023-11-22T00:26:50;1.00;99.90
29687;DHT22;16599;47.078;15.536;2023-11-22T00:29:17;1.10;99.90
29687;DHT22;16599;47.078;15.536;2023-11-22T00:31:44;1.00;99.90
29687;DHT22;16599;47.078;15.536;2023-11-22T00:34:11;0.90;99.90
29687;DHT22;16599;47.078;15.536;2023-11-22T00:36:38;1.10;99.90
29687;DHT22;16599;47.078;15.536;2023-11-22T00:39:05;1.30;99.90
29687;DHT22;16599;47.078;15.536;2023-11-22T00:41:32;1.20;99.90
29687;DHT22;16599;47.078;15.536;2023-11-22T00:43:59;1.40;99.90
29687;DHT22;16599;47.078;15.536;2023-11-22T00:46:26;1.30;99.90
29687;DHT22;16599;47.078;15.536;2023-11-22T00:48:52;1.10;99.90
29687;DHT22;16599;47.078;15.536;2023-11-22T00:51:19;1.20;99.90
29687;DHT22;16599;47.078;15.536;2023-11-22T00:53:46;1.40;99.90
29687;DHT22;16599;47.078;15.536;2023-11-22T00:56:13;1.30;99.90
29687;DHT22;16599;47.078;15.536;2023-11-22T00:58:40;1.30;99.90
29687;DHT22;16599;47.078;15.536;2023-11-22T01:01:07;1.30;99.90
29687;DHT22;16599;47.078;15.536;2023-11-22T01:03:34;1.30;99.90
29687;DHT22;16599;47.078;15.536;2023-11-22T01:06:02;1.30;99.90
29687;DHT22;16599;47.078;15.536;2023-11-22T01:08:29;1.30;99.90
29687;DHT22;16599;47.078;15.536;2023-11-22T01:10:57;1.20;99.90
29687;DHT22;16599;47.078;15.536;2023-11-22T01:13:24;1.10;99.90
29687;DHT22;16599;47.078;15.536;2023-11-22T01:15:51;0.80;99.90
29687;DHT22;16599;47.078;15.536;2023-11-22T01:18:18;0.40;99.90
29687;DHT22;16599;47.078;15.536;2023-11-22T01:20:45;0.40;99.90
29687;DHT22;16599;47.078;15.536;2023-11-22T01:23:12;0.60;99.90
29687;DHT22;16599;47.078;15.536;2023-11-22T01:25:39;0.70;99.90
29687;DHT22;16599;47.078;15.536;2023-11-22T01:28:06;0.80;99.90
29687;DHT22;16599;47.078;15.536;2023-11-22T01:30:37;1.00;99.90
29687;DHT22;16599;47.078;15.536;2023-11-22T01:33:05;0.80;99.90
29687;DHT22;16599;47.078;15.536;2023-11-22T01:35:32;0.40;99.90
29687;DHT22;16599;47.078;15.536;2023-11-22T01:38:00;0.30;99.90
29687;DHT22;16599;47.078;15.536;2023-11-22T01:40:28;0.60;99.90
29687;DHT22;16599;47.078;15.536;2023-11-22T01:42:55;0.80;99.90
29687;DHT22;16599;47.078;15.536;2023-11-22T01:45:22;0.90;99.90
29687;DHT22;16599;47.078;15.536;2023-11-22T01:47:49;0.90;99.90
29687;DHT22;16599;47.078;15.536;2023-11-22T01:50:16;1.00;99.90
29687;DHT22;16599;47.078;15.536;2023-11-22T01:52:43;0.90;99.90
29687;DHT22;16599;47.078;15.536;2023-11-22T01:55:10;1.00;99.90
29687;DHT22;16599;47.078;15.536;2023-11-22T01:57:38;1.00;99.90
29687;DHT22;16599;47.078;15.536;2023-11-22T02:00:05;0.90;99.90
29687;DHT22;16599;47.078;15.536;2023-11-22T02:02:35;0.80;99.90
29687;DHT22;16599;47.078;15.536;2023-11-22T02:05:02;1.00;99.90
29687;DHT22;16599;47.078;15.536;2023-11-22T02:07:29;0.90;99.90
29687;DHT22;16599;47.078;15.536;2023-11-22T02:09:58;1.10;99.90
29687;DHT22;16599;47.078;15.536;2023-11-22T02:12:24;1.10;99.90
29687;DHT22;16599;47.078;15.536;2023-11-22T02:14:51;0.80;99.90
29687;DHT22;16599;47.078;15.536;2023-11-22T02:17:18;0.80;99.90
29687;DHT22;16599;47.078;15.536;2023-11-22T02:19:45;0.60;99.90
29687;DHT22;16599;47.078;15.536;2023-11-22T02:22:12;0.40;99.90
29687;DHT22;16599;47.078;15.536;2023-11-22T02:24:38;0.50;99.90
29687;DHT22;16599;47.078;15.536;2023-11-22T02:27:06;0.30;99.90
29687;DHT22;16599;47.078;15.536;2023-11-22T02:29:33;0.60;99.90
29687;DHT22;16599;47.078;15.536;2023-11-22T02:32:00;0.40;99.90
29687;DHT22;16599;47.078;15.536;2023-11-22T02:34:27;0.70;99.90
29687;DHT22;16599;47.078;15.536;2023-11-22T02:36:54;0.80;99.90
29687;DHT22;16599;47.078;15.536;2023-11-22T02:39:32;0.70;99.90
29687;DHT22;16599;47.078;15.536;2023-11-22T02:42:02;0.50;99.90
29687;DHT22;16599;47.078;15.536;2023-11-22T02:44:30;0.50;99.90
29687;DHT22;16599;47.078;15.536;2023-11-22T02:46:57;0.50;99.90
29687;DHT22;16599;47.078;15.536;2023-11-22T02:49:24;0.40;99.90
29687;DHT22;16599;47.078;15.536;2023-11-22T02:51:51;0.60;99.90
29687;DHT22;16599;47.078;15.536;2023-11-22T02:54:18;0.80;99.90
29687;DHT22;16599;47.078;15.536;2023-11-22T02:56:45;0.80;99.90
29687;DHT22;16599;47.078;15.536;2023-11-22T02:59:11;0.70;99.90
29687;DHT22;16599;47.078;15.536;2023-11-22T03:01:40;0.80;99.90
29687;DHT22;16599;47.078;15.536;2023-11-22T03:04:12;0.70;99.90
29687;DHT22;16599;47.078;15.536;2023-11-22T03:06:40;0.70;99.90
29687;DHT22;16599;47.078;15.536;2023-11-22T03:09:07;0.70;99.90
29687;DHT22;16599;47.078;15.536;2023-11-22T03:11:35;0.70;99.90
29687;DHT22;16599;47.078;15.536;2023-11-22T03:14:02;0.60;99.90
29687;DHT22;16599;47.078;15.536;2023-11-22T03:16:30;0.60;99.90
29687;DHT22;16599;47.078;15.536;2023-11-22T03:18:57;0.40;99.90
29687;DHT22;16599;47.078;15.536;2023-11-22T03:21:24;0.20;99.90
29687;DHT22;16599;47.078;15.536;2023-11-22T03:23:54;0.20;99.90
29687;DHT22;16599;47.078;15.536;2023-11-22T03:26:21;0.30;99.90
29687;DHT22;16599;47.078;15.536;2023-11-22T03:28:47;0.50;99.90
29687;DHT22;16599;47.078;15.536;2023-11-22T03:31:14;0.60;99.90
29687;DHT22;16599;47.078;15.536;2023-11-22T03:33:42;0.50;99.90
29687;DHT22;16599;47.078;15.536;2023-11-22T03:36:09;0.30;99.90
29687;DHT22;16599;47.078;15.536;2023-11-22T03:38:38;0.20;99.90
29687;DHT22;16599;47.078;15.536;2023-11-22T03:41:05;0.40;99.90
29687;DHT22;16599;47.078;15.536;2023-11-22T03:43:32;0.30;99.90
29687;DHT22;16599;47.078;15.536;2023-11-22T03:45:59;0.20;99.90
29687;DHT22;16599;47.078;15.536;2023-11-22T03:48:26;0.40;99.90
29687;DHT22;16599;47.078;15.536;2023-11-22T03:50:53;0.40;99.90
29687;DHT22;16599;47.078;15.536;2023-11-22T03:53:19;0.30;99.90
29687;DHT22;16599;47.078;15.536;2023-11-22T03:55:48;0.30;99.90
29687;DHT22;16599;47.078;15.536;2023-11-22T03:58:16;0.20;99.90
29687;DHT22;16599;47.078;15.536;2023-11-22T04:00:44;0.20;99.90
29687;DHT22;16599;47.078;15.536;2023-11-22T04:03:11;0.30;99.90
29687;DHT22;16599;47.078;15.536;2023-11-22T04:05:39;0.50;99.90
29687;DHT22;16599;47.078;15.536;2023-11-22T04:08:06;0.30;99.90
29687;DHT22;16599;47.078;15.536;2023-11-22T04:10:33;0.30;99.90
29687;DHT22;16599;47.078;15.536;2023-11-22T04:13:00;0.10;99.90
29687;DHT22;16599;47.078;15.536;2023-11-22T04:15:27;0.10;99.90
29687;DHT22;16599;47.078;15.536;2023-11-22T04:17:54;0.20;99.90
29687;DHT22;16599;47.078;15.536;2023-11-22T04:20:22;0.30;99.90
29687;DHT22;16599;47.078;15.536;2023-11-22T04:22:49;0.30;99.90
29687;DHT22;16599;47.078;15.536;2023-11-22T04:25:16;0.20;99.90
29687;DHT22;16599;47.078;15.536;2023-11-22T04:27:43;0.20;99.90
29687;DHT22;16599;47.078;15.536;2023-11-22T04:30:10;0.10;99.90
29687;DHT22;16599;47.078;15.536;2023-11-22T04:32:41;0.10;99.90
29687;DHT22;16599;47.078;15.536;2023-11-22T04:35:16;-0.10;99.90
29687;DHT22;16599;47.078;15.536;2023-11-22T04:37:43;-0.20;99.90
29687;DHT22;16599;47.078;15.536;2023-11-22T04:40:10;-0.20;99.90
29687;DHT22;16599;47.078;15.536;2023-11-22T04:42:38;-0.30;99.90
29687;DHT22;16599;47.078;15.536;2023-11-22T04:45:05;-0.10;99.90
29687;DHT22;16599;47.078;15.536;2023-11-22T04:47:33;-0.20;99.90
29687;DHT22;16599;47.078;15.536;2023-11-22T04:50:00;0.00;99.90
29687;DHT22;16599;47.078;15.536;2023-11-22T04:52:27;0.00;99.90
29687;DHT22;16599;47.078;15.536;2023-11-22T04:54:57;-0.10;99.90
29687;DHT22;16599;47.078;15.536;2023-11-22T04:57:24;0.00;99.90
29687;DHT22;16599;47.078;15.536;2023-11-22T04:59:51;0.10;99.90
29687;DHT22;16599;47.078;15.536;2023-11-22T05:02:18;0.20;99.90
29687;DHT22;16599;47.078;15.536;2023-11-22T05:04:45;-0.10;99.90
29687;DHT22;16599;47.078;15.536;2023-11-22T05:07:15;-0.20;99.90
29687;DHT22;16599;47.078;15.536;2023-11-22T05:09:42;-0.30;99.90
29687;DHT22;16599;47.078;15.536;2023-11-22T05:12:11;-0.30;99.90
29687;DHT22;16599;47.078;15.536;2023-11-22T05:14:38;-0.30;99.90
29687;DHT22;16599;47.078;15.536;2023-11-22T05:17:06;-0.40;99.90
29687;DHT22;16599;47.078;15.536;2023-11-22T05:19:32;-0.20;99.90
29687;DHT22;16599;47.078;15.536;2023-11-22T05:21:59;-0.30;99.90
29687;DHT22;16599;47.078;15.536;2023-11-22T05:24:26;-0.20;99.90
29687;DHT22;16599;47.078;15.536;2023-11-22T05:26:53;-0.20;99.90
29687;DHT22;16599;47.078;15.536;2023-11-22T05:29:19;-0.30;99.90
29687;DHT22;16599;47.078;15.536;2023-11-22T05:31:46;-0.10;99.90
29687;DHT22;16599;47.078;15.536;2023-11-22T05:34:13;0.10;99.90
29687;DHT22;16599;47.078;15.536;2023-11-22T05:36:40;0.20;99.90
29687;DHT22;16599;47.078;15.536;2023-11-22T05:39:07;0.20;99.90
29687;DHT22;16599;47.078;15.536;2023-11-22T05:41:33;0.00;99.90
29687;DHT22;16599;47.078;15.536;2023-11-22T05:44:00;-0.30;99.90
29687;DHT22;16599;47.078;15.536;2023-11-22T05:46:27;-0.20;99.90
29687;DHT22;16599;47.078;15.536;2023-11-22T05:48:54;-0.30;99.90
29687;DHT22;16599;47.078;15.536;2023-11-22T05:51:21;-0.20;99.90
29687;DHT22;16599;47.078;15.536;2023-11-22T05:53:48;-0.20;99.90
29687;DHT22;16599;47.078;15.536;2023-11-22T05:56:15;-0.40;99.90
29687;DHT22;16599;47.078;15.536;2023-11-22T05:58:43;-0.40;99.90
29687;DHT22;16599;47.078;15.536;2023-11-22T06:01:10;-0.50;99.90
29687;DHT22;16599;47.078;15.536;2023-11-22T06:03:40;-0.40;99.90
29687;DHT22;16599;47.078;15.536;2023-11-22T06:06:09;-0.30;99.90
29687;DHT22;16599;47.078;15.536;2023-11-22T06:08:36;-0.30;99.90
29687;DHT22;16599;47.078;15.536;2023-11-22T06:11:03;-0.30;99.90
29687;DHT22;16599;47.078;15.536;2023-11-22T06:13:30;-0.20;99.90
29687;DHT22;16599;47.078;15.536;2023-11-22T06:15:57;-0.40;99.90
29687;DHT22;16599;47.078;15.536;2023-11-22T06:18:24;-0.40;99.90
29687;DHT22;16599;47.078;15.536;2023-11-22T06:20:56;-0.50;99.90
29687;DHT22;16599;47.078;15.536;2023-11-22T06:23:23;-0.20;99.90
29687;DHT22;16599;47.078;15.536;2023-11-22T06:25:50;-0.10;99.90
29687;DHT22;16599;47.078;15.536;2023-11-22T06:28:17;-0.20;99.90
29687;DHT22;16599;47.078;15.536;2023-11-22T06:30:44;-0.20;99.90
29687;DHT22;16599;47.078;15.536;2023-11-22T06:33:11;-0.10;99.90
29687;DHT22;16599;47.078;15.536;2023-11-22T06:35:38;0.00;99.90
29687;DHT22;16599;47.078;15.536;2023-11-22T06:38:05;0.20;99.90
29687;DHT22;16599;47.078;15.536;2023-11-22T06:40:32;0.20;99.90
29687;DHT22;16599;47.078;15.536;2023-11-22T06:42:59;-0.20;99.90
29687;DHT22;16599;47.078;15.536;2023-11-22T06:45:25;-0.40;99.90
29687;DHT22;16599;47.078;15.536;2023-11-22T06:47:52;-0.20;99.90
29687;DHT22;16599;47.078;15.536;2023-11-22T06:50:19;-0.50;99.90
29687;DHT22;16599;47.078;15.536;2023-11-22T06:52:47;-0.30;99.90
29687;DHT22;16599;47.078;15.536;2023-11-22T06:55:16;-0.40;99.90
29687;DHT22;16599;47.078;15.536;2023-11-22T06:57:46;-0.40;99.90
29687;DHT22;16599;47.078;15.536;2023-11-22T07:00:12;-0.40;99.90
29687;DHT22;16599;47.078;15.536;2023-11-22T07:02:39;-0.30;99.90
29687;DHT22;16599;47.078;15.536;2023-11-22T07:05:06;-0.20;99.90
29687;DHT22;16599;47.078;15.536;2023-11-22T07:07:37;-0.30;99.90
29687;DHT22;16599;47.078;15.536;2023-11-22T07:10:04;-0.20;99.90
29687;DHT22;16599;47.078;15.536;2023-11-22T07:12:32;-0.20;99.90
29687;DHT22;16599;47.078;15.536;2023-11-22T07:15:01;0.10;99.90
29687;DHT22;16599;47.078;15.536;2023-11-22T07:17:28;0.40;99.90
29687;DHT22;16599;47.078;15.536;2023-11-22T07:19:55;0.50;99.90
29687;DHT22;16599;47.078;15.536;2023-11-22T07:22:22;0.20;99.90
29687;DHT22;16599;47.078;15.536;2023-11-22T07:24:50;0.10;99.90
29687;DHT22;16599;47.078;15.536;2023-11-22T07:27:27;0.50;99.90
29687;DHT22;16599;47.078;15.536;2023-11-22T07:29:55;0.60;99.90
29687;DHT22;16599;47.078;15.536;2023-11-22T07:32:22;0.50;99.90
29687;DHT22;16599;47.078;15.536;2023-11-22T07:34:49;0.60;99.90
29687;DHT22;16599;47.078;15.536;2023-11-22T07:37:16;0.70;99.90
29687;DHT22;16599;47.078;15.536;2023-11-22T07:39:44;0.70;99.90
29687;DHT22;16599;47.078;15.536;2023-11-22T07:42:11;0.80;99.90
29687;DHT22;16599;47.078;15.536;2023-11-22T07:44:39;0.70;99.90
29687;DHT22;16599;47.078;15.536;2023-11-22T07:47:06;0.80;99.90
29687;DHT22;16599;47.078;15.536;2023-11-22T07:49:38;0.80;99.90
29687;DHT22;16599;47.078;15.536;2023-11-22T07:52:05;0.80;99.90
29687;DHT22;16599;47.078;15.536;2023-11-22T07:54:33;0.80;99.90
29687;DHT22;16599;47.078;15.536;2023-11-22T07:57:02;0.80;99.90
29687;DHT22;16599;47.078;15.536;2023-11-22T07:59:29;1.10;99.90
29687;DHT22;16599;47.078;15.536;2023-11-22T08:01:55;1.40;99.90
29687;DHT22;16599;47.078;15.536;2023-11-22T08:04:23;1.50;99.90
29687;DHT22;16599;47.078;15.536;2023-11-22T08:06:51;1.50;99.90
29687;DHT22;16599;47.078;15.536;2023-11-22T08:09:18;1.60;99.90
29687;DHT22;16599;47.078;15.536;2023-11-22T08:11:46;1.50;99.90
29687;DHT22;16599;47.078;15.536;2023-11-22T08:14:14;1.70;99.90
29687;DHT22;16599;47.078;15.536;2023-11-22T08:16:41;1.90;99.90
29687;DHT22;16599;47.078;15.536;2023-11-22T08:19:09;2.10;99.90
29687;DHT22;16599;47.078;15.536;2023-11-22T08:21:36;2.40;99.90
29687;DHT22;16599;47.078;15.536;2023-11-22T08:24:03;2.40;99.90
29687;DHT22;16599;47.078;15.536;2023-11-22T08:26:30;2.30;99.90
29687;DHT22;16599;47.078;15.536;2023-11-22T08:28:57;2.60;99.90
29687;DHT22;16599;47.078;15.536;2023-11-22T08:31:24;2.80;99.90
29687;DHT22;16599;47.078;15.536;2023-11-22T08:33:51;3.20;99.90
29687;DHT22;16599;47.078;15.536;2023-11-22T08:36:18;3.20;99.90
29687;DHT22;16599;47.078;15.536;2023-11-22T08:38:45;3.10;99.90
29687;DHT22;16599;47.078;15.536;2023-11-22T08:41:12;3.10;99.90
29687;DHT22;16599;47.078;15.536;2023-11-22T08:43:41;3.50;99.90
29687;DHT22;16599;47.078;15.536;2023-11-22T08:46:11;3.80;99.90
29687;DHT22;16599;47.078;15.536;2023-11-22T08:48:41;3.90;99.90
29687;DHT22;16599;47.078;15.536;2023-11-22T08:51:09;3.90;99.90
29687;DHT22;16599;47.078;15.536;2023-11-22T08:53:40;3.90;99.90
29687;DHT22;16599;47.078;15.536;2023-11-22T08:56:07;4.10;99.90
29687;DHT22;16599;47.078;15.536;2023-11-22T08:58:39;4.20;99.90
29687;DHT22;16599;47.078;15.536;2023-11-22T09:01:06;4.30;99.90
29687;DHT22;16599;47.078;15.536;2023-11-22T09:03:34;4.40;99.90
29687;DHT22;16599;47.078;15.536;2023-11-22T09:06:01;4.50;99.90
29687;DHT22;16599;47.078;15.536;2023-11-22T09:08:29;4.50;99.90
29687;DHT22;16599;47.078;15.536;2023-11-22T09:11:10;4.60;99.90
29687;DHT22;16599;47.078;15.536;2023-11-22T09:13:37;4.80;99.90
29687;DHT22;16599;47.078;15.536;2023-11-22T09:16:04;5.00;99.90
29687;DHT22;16599;47.078;15.536;2023-11-22T09:18:32;5.10;99.90
29687;DHT22;16599;47.078;15.536;2023-11-22T09:21:14;5.40;99.90
29687;DHT22;16599;47.078;15.536;2023-11-22T09:23:43;5.40;99.90
29687;DHT22;16599;47.078;15.536;2023-11-22T09:26:10;5.50;99.90
29687;DHT22;16599;47.078;15.536;2023-11-22T09:32:05;5.60;99.90
29687;DHT22;16599;47.078;15.536;2023-11-22T09:34:32;5.70;99.90
29687;DHT22;16599;47.078;15.536;2023-11-22T09:36:58;5.90;99.90
29687;DHT22;16599;47.078;15.536;2023-11-22T09:39:26;6.10;99.90
29687;DHT22;16599;47.078;15.536;2023-11-22T09:41:58;6.10;99.90
29687;DHT22;16599;47.078;15.536;2023-11-22T09:44:24;6.10;99.90
29687;DHT22;16599;47.078;15.536;2023-11-22T09:46:51;6.20;99.90
29687;DHT22;16599;47.078;15.536;2023-11-22T09:52:50;6.30;99.90
29687;DHT22;16599;47.078;15.536;2023-11-22T09:55:36;6.30;99.90
29687;DHT22;16599;47.078;15.536;2023-11-22T09:58:04;6.40;99.90
29687;DHT22;16599;47.078;15.536;2023-11-22T10:00:30;6.40;99.90
29687;DHT22;16599;47.078;15.536;2023-11-22T10:02:58;6.40;99.90
29687;DHT22;16599;47.078;15.536;2023-11-22T10:05:25;6.50;99.90
29687;DHT22;16599;47.078;15.536;2023-11-22T10:07:55;6.70;99.90
29687;DHT22;16599;47.078;15.536;2023-11-22T10:10:22;6.70;99.90
29687;DHT22;16599;47.078;15.536;2023-11-22T10:12:49;6.70;99.90
29687;DHT22;16599;47.078;15.536;2023-11-22T10:15:16;6.80;99.90
29687;DHT22;16599;47.078;15.536;2023-11-22T10:17:55;6.80;99.90
29687;DHT22;16599;47.078;15.536;2023-11-22T10:20:35;6.80;99.90
29687;DHT22;16599;47.078;15.536;2023-11-22T10:23:03;6.80;99.90
29687;DHT22;16599;47.078;15.536;2023-11-22T10:25:30;7.00;99.90
29687;DHT22;16599;47.078;15.536;2023-11-22T10:27:59;7.40;99.90
29687;DHT22;16599;47.078;15.536;2023-11-22T10:30:27;7.70;99.90
29687;DHT22;16599;47.078;15.536;2023-11-22T10:36:51;7.50;99.90
29687;DHT22;16599;47.078;15.536;2023-11-22T10:39:20;7.60;99.90
29687;DHT22;16599;47.078;15.536;2023-11-22T10:41:48;7.40;99.90
29687;DHT22;16599;47.078;15.536;2023-11-22T10:44:20;7.30;99.90
29687;DHT22;16599;47.078;15.536;2023-11-22T10:46:48;7.50;99.90
29687;DHT22;16599;47.078;15.536;2023-11-22T10:49:17;7.50;99.90
29687;DHT22;16599;47.078;15.536;2023-11-22T10:51:47;7.60;99.90
29687;DHT22;16599;47.078;15.536;2023-11-22T10:54:17;7.70;99.50
29687;DHT22;16599;47.078;15.536;2023-11-22T10:56:46;7.70;98.60
29687;DHT22;16599;47.078;15.536;2023-11-22T11:05:11;8.40;98.10
29687;DHT22;16599;47.078;15.536;2023-11-22T11:11:07;8.20;97.10
29687;DHT22;16599;47.078;15.536;2023-11-22T11:13:35;8.40;99.90
29687;DHT22;16599;47.078;15.536;2023-11-22T11:16:02;8.10;99.90
29687;DHT22;16599;47.078;15.536;2023-11-22T11:18:29;8.20;99.90
29687;DHT22;16599;47.078;15.536;2023-11-22T11:21:00;8.60;99.20
29687;DHT22;16599;47.078;15.536;2023-11-22T11:23:47;8.80;98.50
29687;DHT22;16599;47.078;15.536;2023-11-22T11:26:21;9.00;98.30
29687;DHT22;16599;47.078;15.536;2023-11-22T11:28:51;8.50;96.60
29687;DHT22;16599;47.078;15.536;2023-11-22T11:31:22;8.30;96.90
29687;DHT22;16599;47.078;15.536;2023-11-22T11:43:51;8.30;96.50
29687;DHT22;16599;47.078;15.536;2023-11-22T11:46:18;8.30;96.30
29687;DHT22;16599;47.078;15.536;2023-11-22T12:20:30;8.80;95.80
29687;DHT22;16599;47.078;15.536;2023-11-22T12:22:58;8.80;95.40
29687;DHT22;16599;47.078;15.536;2023-11-22T12:25:29;8.70;95.40
29687;DHT22;16599;47.078;15.536;2023-11-22T12:31:44;8.80;95.50
29687;DHT22;16599;47.078;15.536;2023-11-22T12:34:15;8.80;95.50
29687;DHT22;16599;47.078;15.536;2023-11-22T12:36:42;9.00;96.30
29687;DHT22;16599;47.078;15.536;2023-11-22T12:39:09;8.90;95.10
29687;DHT22;16599;47.078;15.536;2023-11-22T12:41:44;8.90;94.50
29687;DHT22;16599;47.078;15.536;2023-11-22T12:44:19;9.00;94.60
29687;DHT22;16599;47.078;15.536;2023-11-22T12:46:52;9.50;93.60
29687;DHT22;16599;47.078;15.536;2023-11-22T12:49:25;9.60;93.60
29687;DHT22;16599;47.078;15.536;2023-11-22T12:51:53;9.10;93.30
29687;DHT22;16599;47.078;15.536;2023-11-22T12:54:20;9.10;93.90
29687;DHT22;16599;47.078;15.536;2023-11-22T12:56:50;9.20;93.60
29687;DHT22;16599;47.078;15.536;2023-11-22T12:59:17;8.90;93.20
29687;DHT22;16599;47.078;15.536;2023-11-22T13:01:45;8.70;93.00
29687;DHT22;16599;47.078;15.536;2023-11-22T13:04:11;8.70;93.70
29687;DHT22;16599;47.078;15.536;2023-11-22T13:06:41;8.70;93.40
29687;DHT22;16599;47.078;15.536;2023-11-22T13:09:10;8.90;93.90
29687;DHT22;16599;47.078;15.536;2023-11-22T13:11:43;8.70;93.60
29687;DHT22;16599;47.078;15.536;2023-11-22T13:14:19;8.70;93.60
29687;DHT22;16599;47.078;15.536;2023-11-22T13:16:46;8.70;93.70
29687;DHT22;16599;47.078;15.536;2023-11-22T13:19:14;8.60;93.80
29687;DHT22;16599;47.078;15.536;2023-11-22T13:21:41;8.60;93.80
29687;DHT22;16599;47.078;15.536;2023-11-22T13:24:08;8.50;93.70
29687;DHT22;16599;47.078;15.536;2023-11-22T13:26:36;8.40;93.80
29687;DHT22;16599;47.078;15.536;2023-11-22T13:29:03;8.30;94.00
29687;DHT22;16599;47.078;15.536;2023-11-22T13:31:30;8.20;94.00
29687;DHT22;16599;47.078;15.536;2023-11-22T13:33:57;8.20;94.10
29687;DHT22;16599;47.078;15.536;2023-11-22T13:36:23;8.20;94.10
29687;DHT22;16599;47.078;15.536;2023-11-22T13:38:50;8.20;94.30
29687;DHT22;16599;47.078;15.536;2023-11-22T13:41:17;8.10;94.50
29687;DHT22;16599;47.078;15.536;2023-11-22T13:43:44;8.10;94.30
29687;DHT22;16599;47.078;15.536;2023-11-22T13:46:13;8.10;94.40
29687;DHT22;16599;47.078;15.536;2023-11-22T13:48:42;8.00;95.10
29687;DHT22;16599;47.078;15.536;2023-11-22T13:51:09;7.90;94.70
29687;DHT22;16599;47.078;15.536;2023-11-22T13:53:42;7.80;94.90
29687;DHT22;16599;47.078;15.536;2023-11-22T13:56:12;7.80;94.70
29687;DHT22;16599;47.078;15.536;2023-11-22T13:58:41;7.80;94.80
29687;DHT22;16599;47.078;15.536;2023-11-22T14:01:08;7.70;94.80
29687;DHT22;16599;47.078;15.536;2023-11-22T14:03:43;7.70;94.70
29687;DHT22;16599;47.078;15.536;2023-11-22T14:06:10;7.60;94.90
29687;DHT22;16599;47.078;15.536;2023-11-22T14:08:40;7.70;95.10
29687;DHT22;16599;47.078;15.536;2023-11-22T14:11:07;7.70;95.10
29687;DHT22;16599;47.078;15.536;2023-11-22T14:13:34;7.80;95.90
29687;DHT22;16599;47.078;15.536;2023-11-22T14:16:01;7.70;95.20
29687;DHT22;16599;47.078;15.536;2023-11-22T14:18:28;7.60;95.60
29687;DHT22;16599;47.078;15.536;2023-11-22T14:20:55;7.70;95.20
29687;DHT22;16599;47.078;15.536;2023-11-22T14:23:23;7.70;95.30
29687;DHT22;16599;47.078;15.536;2023-11-22T14:25:56;7.50;95.50
29687;DHT22;16599;47.078;15.536;2023-11-22T14:28:24;7.50;96.20
29687;DHT22;16599;47.078;15.536;2023-11-22T14:30:51;7.70;94.90
29687;DHT22;16599;47.078;15.536;2023-11-22T14:33:21;7.50;95.30
29687;DHT22;16599;47.078;15.536;2023-11-22T14:35:48;7.20;96.10
29687;DHT22;16599;47.078;15.536;2023-11-22T14:38:15;7.20;96.00
29687;DHT22;16599;47.078;15.536;2023-11-22T14:40:44;7.10;96.00
29687;DHT22;16599;47.078;15.536;2023-11-22T14:43:11;7.00;96.60
29687;DHT22;16599;47.078;15.536;2023-11-22T14:45:38;6.90;96.50
29687;DHT22;16599;47.078;15.536;2023-11-22T14:48:05;6.80;96.50
29687;DHT22;16599;47.078;15.536;2023-11-22T14:50:31;6.70;96.90
29687;DHT22;16599;47.078;15.536;2023-11-22T14:52:58;6.70;97.20
29687;DHT22;16599;47.078;15.536;2023-11-22T14:55:25;6.60;97.20
29687;DHT22;16599;47.078;15.536;2023-11-22T14:57:53;6.60;97.20
29687;DHT22;16599;47.078;15.536;2023-11-22T15:00:24;6.60;97.10
29687;DHT22;16599;47.078;15.536;2023-11-22T15:02:52;6.40;97.40
29687;DHT22;16599;47.078;15.536;2023-11-22T15:05:21;6.10;98.10
29687;DHT22;16599;47.078;15.536;2023-11-22T15:07:49;6.30;98.10
29687;DHT22;16599;47.078;15.536;2023-11-22T15:10:21;6.20;98.10
29687;DHT22;16599;47.078;15.536;2023-11-22T15:12:48;6.00;98.40
29687;DHT22;16599;47.078;15.536;2023-11-22T15:15:15;6.00;98.70
29687;DHT22;16599;47.078;15.536;2023-11-22T15:17:42;6.10;98.50
29687;DHT22;16599;47.078;15.536;2023-11-22T15:20:09;5.70;99.50
29687;DHT22;16599;47.078;15.536;2023-11-22T15:22:37;5.60;99.90
29687;DHT22;16599;47.078;15.536;2023-11-22T15:25:05;5.20;99.90
29687;DHT22;16599;47.078;15.536;2023-11-22T15:27:32;4.80;99.90
29687;DHT22;16599;47.078;15.536;2023-11-22T15:29:59;4.90;99.90
29687;DHT22;16599;47.078;15.536;2023-11-22T15:32:26;4.70;99.90
29687;DHT22;16599;47.078;15.536;2023-11-22T15:34:52;4.40;99.90
29687;DHT22;16599;47.078;15.536;2023-11-22T15:37:20;4.50;99.90
29687;DHT22;16599;47.078;15.536;2023-11-22T15:39:47;4.40;99.90
29687;DHT22;16599;47.078;15.536;2023-11-22T15:42:14;4.00;99.90
29687;DHT22;16599;47.078;15.536;2023-11-22T15:44:41;4.10;99.90
29687;DHT22;16599;47.078;15.536;2023-11-22T15:47:08;4.10;99.90
29687;DHT22;16599;47.078;15.536;2023-11-22T15:49:40;3.40;99.90
29687;DHT22;16599;47.078;15.536;2023-11-22T15:52:07;3.40;99.90
29687;DHT22;16599;47.078;15.536;2023-11-22T15:54:34;3.80;99.90
29687;DHT22;16599;47.078;15.536;2023-11-22T15:57:00;3.80;99.90
29687;DHT22;16599;47.078;15.536;2023-11-22T15:59:28;3.70;99.90
29687;DHT22;16599;47.078;15.536;2023-11-22T16:01:55;3.60;99.90
29687;DHT22;16599;47.078;15.536;2023-11-22T16:04:22;3.10;99.90
29687;DHT22;16599;47.078;15.536;2023-11-22T16:06:49;3.10;99.90
29687;DHT22;16599;47.078;15.536;2023-11-22T16:09:17;3.40;99.90
29687;DHT22;16599;47.078;15.536;2023-11-22T16:11:45;3.30;99.90
29687;DHT22;16599;47.078;15.536;2023-11-22T16:14:12;3.20;99.90
29687;DHT22;16599;47.078;15.536;2023-11-22T16:16:41;3.00;99.90
29687;DHT22;16599;47.078;15.536;2023-11-22T16:19:08;2.30;99.90
29687;DHT22;16599;47.078;15.536;2023-11-22T16:21:37;2.80;99.90
29687;DHT22;16599;47.078;15.536;2023-11-22T16:24:04;3.20;99.90
29687;DHT22;16599;47.078;15.536;2023-11-22T16:26:32;3.10;99.90
29687;DHT22;16599;47.078;15.536;2023-11-22T16:28:59;2.90;99.90
29687;DHT22;16599;47.078;15.536;2023-11-22T16:31:26;2.80;99.90
29687;DHT22;16599;47.078;15.536;2023-11-22T16:33:53;2.80;99.90
29687;DHT22;16599;47.078;15.536;2023-11-22T16:36:20;2.50;99.90
29687;DHT22;16599;47.078;15.536;2023-11-22T16:38:48;2.30;99.90
29687;DHT22;16599;47.078;15.536;2023-11-22T16:41:15;2.20;99.90